sensor_id;sensor_type;location;lat;lon;timestamp;P1;durP1;ratioP1;P2;durP2;ratioP2
38513;SDS011;24282;48.400;10.808;2024-03-08T00:01:30;14.30;;;11.17;;
38513;SDS011;24282;48.400;10.808;2024-03-08T00:03:56;11.33;;;9.20;;
38513;SDS011;24282;48.400;10.808;2024-03-08T00:06:22;14.03;;;10.57;;
38513;SDS011;24282;48.400;10.808;2024-03-08T00:08:47;13.67;;;10.47;;
38513;SDS011;24282;48.400;10.808;2024-03-08T00:11:13;11.90;;;10.03;;
38513;SDS011;24282;48.400;10.808;2024-03-08T00:13:39;13.87;;;10.33;;
38513;SDS011;24282;48.400;10.808;2024-03-08T00:16:05;13.17;;;11.03;;
38513;SDS011;24282;48.400;10.808;2024-03-08T00:18:31;13.43;;;10.90;;
38513;SDS011;24282;48.400;10.808;2024-03-08T00:20:56;13.43;;;10.80;;
38513;SDS011;24282;48.400;10.808;2024-03-08T00:23:22;14.50;;;10.63;;
38513;SDS011;24282;48.400;10.808;2024-03-08T00:25:48;12.77;;;10.27;;
38513;SDS011;24282;48.400;10.808;2024-03-08T00:28:14;14.63;;;11.00;;
38513;SDS011;24282;48.400;10.808;2024-03-08T00:30:42;12.97;;;10.63;;
38513;SDS011;24282;48.400;10.808;2024-03-08T00:33:08;13.30;;;10.60;;
38513;SDS011;24282;48.400;10.808;2024-03-08T00:35:33;12.87;;;9.73;;
38513;SDS011;24282;48.400;10.808;2024-03-08T00:37:59;13.63;;;10.63;;
38513;SDS011;24282;48.400;10.808;2024-03-08T00:40:25;13.63;;;9.70;;
38513;SDS011;24282;48.400;10.808;2024-03-08T00:42:51;15.30;;;11.00;;
38513;SDS011;24282;48.400;10.808;2024-03-08T00:45:18;12.90;;;10.57;;
38513;SDS011;24282;48.400;10.808;2024-03-08T00:47:44;13.30;;;11.47;;
38513;SDS011;24282;48.400;10.808;2024-03-08T00:50:10;13.33;;;10.80;;
38513;SDS011;24282;48.400;10.808;2024-03-08T00:52:36;14.47;;;11.27;;
38513;SDS011;24282;48.400;10.808;2024-03-08T00:55:02;13.90;;;10.13;;
38513;SDS011;24282;48.400;10.808;2024-03-08T00:57:28;15.67;;;10.57;;
38513;SDS011;24282;48.400;10.808;2024-03-08T00:59:55;15.03;;;10.73;;
38513;SDS011;24282;48.400;10.808;2024-03-08T01:02:21;15.77;;;11.03;;
38513;SDS011;24282;48.400;10.808;2024-03-08T01:04:48;14.27;;;10.37;;
38513;SDS011;24282;48.400;10.808;2024-03-08T01:07:14;13.90;;;11.07;;
38513;SDS011;24282;48.400;10.808;2024-03-08T01:09:40;14.00;;;10.60;;
38513;SDS011;24282;48.400;10.808;2024-03-08T01:12:06;14.97;;;10.60;;
38513;SDS011;24282;48.400;10.808;2024-03-08T01:14:32;12.83;;;10.23;;
38513;SDS011;24282;48.400;10.808;2024-03-08T01:16:58;13.17;;;9.83;;
38513;SDS011;24282;48.400;10.808;2024-03-08T01:19:24;13.60;;;11.03;;
38513;SDS011;24282;48.400;10.808;2024-03-08T01:21:50;13.43;;;10.43;;
38513;SDS011;24282;48.400;10.808;2024-03-08T01:24:16;15.70;;;11.33;;
38513;SDS011;24282;48.400;10.808;2024-03-08T01:26:42;13.53;;;10.50;;
38513;SDS011;24282;48.400;10.808;2024-03-08T01:29:08;13.70;;;11.20;;
38513;SDS011;24282;48.400;10.808;2024-03-08T01:31:33;15.97;;;10.90;;
38513;SDS011;24282;48.400;10.808;2024-03-08T01:34:01;14.97;;;10.77;;
38513;SDS011;24282;48.400;10.808;2024-03-08T01:36:27;14.27;;;10.87;;
38513;SDS011;24282;48.400;10.808;2024-03-08T01:38:53;14.33;;;11.10;;
38513;SDS011;24282;48.400;10.808;2024-03-08T01:41:18;16.80;;;11.23;;
38513;SDS011;24282;48.400;10.808;2024-03-08T01:43:45;13.83;;;10.80;;
38513;SDS011;24282;48.400;10.808;2024-03-08T01:46:10;15.80;;;11.17;;
38513;SDS011;24282;48.400;10.808;2024-03-08T01:48:41;13.03;;;10.43;;
38513;SDS011;24282;48.400;10.808;2024-03-08T01:51:08;15.53;;;11.90;;
38513;SDS011;24282;48.400;10.808;2024-03-08T01:53:34;14.53;;;11.27;;
38513;SDS011;24282;48.400;10.808;2024-03-08T01:56:00;16.70;;;12.23;;
38513;SDS011;24282;48.400;10.808;2024-03-08T01:58:28;13.43;;;10.53;;
38513;SDS011;24282;48.400;10.808;2024-03-08T02:00:54;14.03;;;11.03;;
38513;SDS011;24282;48.400;10.808;2024-03-08T02:03:23;14.23;;;10.67;;
38513;SDS011;24282;48.400;10.808;2024-03-08T02:05:49;13.93;;;10.80;;
38513;SDS011;24282;48.400;10.808;2024-03-08T02:08:16;14.93;;;11.27;;
38513;SDS011;24282;48.400;10.808;2024-03-08T02:10:45;14.27;;;11.40;;
38513;SDS011;24282;48.400;10.808;2024-03-08T02:13:11;13.83;;;10.87;;
38513;SDS011;24282;48.400;10.808;2024-03-08T02:15:53;13.83;;;10.83;;
38513;SDS011;24282;48.400;10.808;2024-03-08T02:18:20;13.85;;;11.57;;
38513;SDS011;24282;48.400;10.808;2024-03-08T02:23:17;14.17;;;11.57;;
38513;SDS011;24282;48.400;10.808;2024-03-08T02:25:44;14.47;;;11.23;;
38513;SDS011;24282;48.400;10.808;2024-03-08T02:28:11;14.47;;;11.67;;
38513;SDS011;24282;48.400;10.808;2024-03-08T02:30:37;15.70;;;12.23;;
38513;SDS011;24282;48.400;10.808;2024-03-08T02:33:04;14.50;;;11.20;;
38513;SDS011;24282;48.400;10.808;2024-03-08T02:35:31;16.53;;;11.70;;
38513;SDS011;24282;48.400;10.808;2024-03-08T02:37:57;13.17;;;10.80;;
38513;SDS011;24282;48.400;10.808;2024-03-08T02:40:23;13.87;;;10.80;;
38513;SDS011;24282;48.400;10.808;2024-03-08T02:42:49;16.43;;;11.73;;
38513;SDS011;24282;48.400;10.808;2024-03-08T02:45:15;13.13;;;10.67;;
38513;SDS011;24282;48.400;10.808;2024-03-08T02:47:40;13.80;;;11.27;;
38513;SDS011;24282;48.400;10.808;2024-03-08T02:50:06;14.33;;;11.30;;
38513;SDS011;24282;48.400;10.808;2024-03-08T02:52:35;15.87;;;11.13;;
38513;SDS011;24282;48.400;10.808;2024-03-08T02:55:01;14.63;;;12.13;;
38513;SDS011;24282;48.400;10.808;2024-03-08T02:57:27;14.67;;;12.00;;
38513;SDS011;24282;48.400;10.808;2024-03-08T02:59:53;15.27;;;12.10;;
38513;SDS011;24282;48.400;10.808;2024-03-08T03:02:19;15.10;;;12.03;;
38513;SDS011;24282;48.400;10.808;2024-03-08T03:04:45;15.47;;;12.43;;
38513;SDS011;24282;48.400;10.808;2024-03-08T03:07:10;18.27;;;11.73;;
38513;SDS011;24282;48.400;10.808;2024-03-08T03:09:36;15.73;;;12.43;;
38513;SDS011;24282;48.400;10.808;2024-03-08T03:12:02;15.40;;;11.00;;
38513;SDS011;24282;48.400;10.808;2024-03-08T03:14:28;15.67;;;12.67;;
38513;SDS011;24282;48.400;10.808;2024-03-08T03:16:54;14.97;;;12.27;;
38513;SDS011;24282;48.400;10.808;2024-03-08T03:19:20;13.83;;;11.23;;
38513;SDS011;24282;48.400;10.808;2024-03-08T03:21:46;15.87;;;12.90;;
38513;SDS011;24282;48.400;10.808;2024-03-08T03:24:12;16.60;;;12.43;;
38513;SDS011;24282;48.400;10.808;2024-03-08T03:26:41;16.60;;;12.73;;
38513;SDS011;24282;48.400;10.808;2024-03-08T03:29:09;14.93;;;11.47;;
38513;SDS011;24282;48.400;10.808;2024-03-08T03:31:36;13.47;;;11.10;;
38513;SDS011;24282;48.400;10.808;2024-03-08T03:34:02;16.03;;;12.37;;
38513;SDS011;24282;48.400;10.808;2024-03-08T03:36:29;19.07;;;12.00;;
38513;SDS011;24282;48.400;10.808;2024-03-08T03:38:55;16.30;;;12.97;;
38513;SDS011;24282;48.400;10.808;2024-03-08T03:41:38;16.73;;;12.63;;
38513;SDS011;24282;48.400;10.808;2024-03-08T03:44:04;16.53;;;13.63;;
38513;SDS011;24282;48.400;10.808;2024-03-08T03:46:34;17.30;;;13.23;;
38513;SDS011;24282;48.400;10.808;2024-03-08T03:49:00;16.43;;;12.93;;
38513;SDS011;24282;48.400;10.808;2024-03-08T03:51:26;16.93;;;13.57;;
38513;SDS011;24282;48.400;10.808;2024-03-08T03:53:54;15.60;;;12.83;;
38513;SDS011;24282;48.400;10.808;2024-03-08T03:56:24;16.37;;;13.80;;
38513;SDS011;24282;48.400;10.808;2024-03-08T03:58:51;17.00;;;12.63;;
38513;SDS011;24282;48.400;10.808;2024-03-08T04:01:16;16.07;;;13.27;;
38513;SDS011;24282;48.400;10.808;2024-03-08T04:03:42;17.13;;;12.63;;
38513;SDS011;24282;48.400;10.808;2024-03-08T04:06:10;17.50;;;13.63;;
38513;SDS011;24282;48.400;10.808;2024-03-08T04:08:36;16.33;;;13.33;;
38513;SDS011;24282;48.400;10.808;2024-03-08T04:11:02;16.00;;;12.53;;
38513;SDS011;24282;48.400;10.808;2024-03-08T04:13:27;15.07;;;12.60;;
38513;SDS011;24282;48.400;10.808;2024-03-08T04:15:53;18.60;;;14.40;;
38513;SDS011;24282;48.400;10.808;2024-03-08T04:18:19;17.77;;;13.73;;
38513;SDS011;24282;48.400;10.808;2024-03-08T04:20:45;17.40;;;13.90;;
38513;SDS011;24282;48.400;10.808;2024-03-08T04:23:10;18.57;;;13.90;;
38513;SDS011;24282;48.400;10.808;2024-03-08T04:25:36;16.67;;;13.23;;
38513;SDS011;24282;48.400;10.808;2024-03-08T04:28:02;19.70;;;14.47;;
38513;SDS011;24282;48.400;10.808;2024-03-08T04:30:28;17.70;;;13.00;;
38513;SDS011;24282;48.400;10.808;2024-03-08T04:32:55;17.60;;;13.03;;
38513;SDS011;24282;48.400;10.808;2024-03-08T04:35:21;17.80;;;13.33;;
38513;SDS011;24282;48.400;10.808;2024-03-08T04:37:46;17.17;;;14.13;;
38513;SDS011;24282;48.400;10.808;2024-03-08T04:40:12;17.53;;;13.73;;
38513;SDS011;24282;48.400;10.808;2024-03-08T04:42:38;21.87;;;14.47;;
38513;SDS011;24282;48.400;10.808;2024-03-08T04:45:05;18.60;;;13.93;;
38513;SDS011;24282;48.400;10.808;2024-03-08T04:47:33;16.00;;;13.37;;
38513;SDS011;24282;48.400;10.808;2024-03-08T04:49:58;16.20;;;13.53;;
38513;SDS011;24282;48.400;10.808;2024-03-08T04:52:24;17.60;;;13.83;;
38513;SDS011;24282;48.400;10.808;2024-03-08T04:54:51;17.13;;;12.83;;
38513;SDS011;24282;48.400;10.808;2024-03-08T04:57:16;16.70;;;12.97;;
38513;SDS011;24282;48.400;10.808;2024-03-08T04:59:45;16.47;;;12.83;;
38513;SDS011;24282;48.400;10.808;2024-03-08T05:02:11;18.47;;;14.07;;
38513;SDS011;24282;48.400;10.808;2024-03-08T05:04:37;17.90;;;13.30;;
38513;SDS011;24282;48.400;10.808;2024-03-08T05:07:02;17.07;;;13.30;;
38513;SDS011;24282;48.400;10.808;2024-03-08T05:09:29;15.47;;;13.00;;
38513;SDS011;24282;48.400;10.808;2024-03-08T05:11:56;18.17;;;14.23;;
38513;SDS011;24282;48.400;10.808;2024-03-08T05:14:24;18.87;;;13.87;;
38513;SDS011;24282;48.400;10.808;2024-03-08T05:16:50;18.13;;;14.53;;
38513;SDS011;24282;48.400;10.808;2024-03-08T05:19:17;19.30;;;13.53;;
38513;SDS011;24282;48.400;10.808;2024-03-08T05:21:46;18.23;;;13.37;;
38513;SDS011;24282;48.400;10.808;2024-03-08T05:24:13;18.30;;;14.23;;
38513;SDS011;24282;48.400;10.808;2024-03-08T05:26:42;17.73;;;14.10;;
38513;SDS011;24282;48.400;10.808;2024-03-08T05:29:08;17.90;;;13.33;;
38513;SDS011;24282;48.400;10.808;2024-03-08T05:31:50;18.47;;;13.57;;
38513;SDS011;24282;48.400;10.808;2024-03-08T05:34:17;17.02;;;13.27;;
38513;SDS011;24282;48.400;10.808;2024-03-08T05:36:45;17.20;;;12.87;;
38513;SDS011;24282;48.400;10.808;2024-03-08T05:39:14;18.13;;;14.00;;
38513;SDS011;24282;48.400;10.808;2024-03-08T05:41:41;17.53;;;13.80;;
38513;SDS011;24282;48.400;10.808;2024-03-08T05:44:07;18.80;;;13.77;;
38513;SDS011;24282;48.400;10.808;2024-03-08T05:46:34;17.47;;;13.63;;
38513;SDS011;24282;48.400;10.808;2024-03-08T05:49:03;18.77;;;14.10;;
38513;SDS011;24282;48.400;10.808;2024-03-08T05:51:34;18.43;;;14.43;;
38513;SDS011;24282;48.400;10.808;2024-03-08T05:54:05;19.40;;;14.20;;
38513;SDS011;24282;48.400;10.808;2024-03-08T05:56:32;19.57;;;14.67;;
38513;SDS011;24282;48.400;10.808;2024-03-08T05:58:58;18.10;;;14.03;;
38513;SDS011;24282;48.400;10.808;2024-03-08T06:01:27;20.27;;;14.53;;
38513;SDS011;24282;48.400;10.808;2024-03-08T06:03:54;20.67;;;15.20;;
38513;SDS011;24282;48.400;10.808;2024-03-08T06:06:24;17.83;;;13.87;;
38513;SDS011;24282;48.400;10.808;2024-03-08T06:08:51;19.63;;;14.60;;
38513;SDS011;24282;48.400;10.808;2024-03-08T06:11:18;22.23;;;15.13;;
38513;SDS011;24282;48.400;10.808;2024-03-08T06:13:45;20.30;;;15.93;;
38513;SDS011;24282;48.400;10.808;2024-03-08T06:16:11;20.77;;;15.83;;
38513;SDS011;24282;48.400;10.808;2024-03-08T06:18:37;21.07;;;15.50;;
38513;SDS011;24282;48.400;10.808;2024-03-08T06:21:04;20.53;;;16.20;;
38513;SDS011;24282;48.400;10.808;2024-03-08T06:23:33;21.90;;;15.97;;
38513;SDS011;24282;48.400;10.808;2024-03-08T06:26:03;22.55;;;16.50;;
38513;SDS011;24282;48.400;10.808;2024-03-08T06:28:30;21.23;;;16.27;;
38513;SDS011;24282;48.400;10.808;2024-03-08T06:30:58;21.27;;;16.17;;
38513;SDS011;24282;48.400;10.808;2024-03-08T06:33:25;20.67;;;16.23;;
38513;SDS011;24282;48.400;10.808;2024-03-08T06:35:53;24.07;;;16.07;;
38513;SDS011;24282;48.400;10.808;2024-03-08T06:38:25;20.43;;;15.67;;
38513;SDS011;24282;48.400;10.808;2024-03-08T06:40:51;21.63;;;16.03;;
38513;SDS011;24282;48.400;10.808;2024-03-08T06:43:17;21.70;;;16.73;;
38513;SDS011;24282;48.400;10.808;2024-03-08T06:45:46;23.53;;;16.23;;
38513;SDS011;24282;48.400;10.808;2024-03-08T06:48:18;24.80;;;15.77;;
38513;SDS011;24282;48.400;10.808;2024-03-08T06:50:44;27.93;;;16.57;;
38513;SDS011;24282;48.400;10.808;2024-03-08T06:53:13;23.17;;;16.63;;
38513;SDS011;24282;48.400;10.808;2024-03-08T06:55:39;22.90;;;16.67;;
38513;SDS011;24282;48.400;10.808;2024-03-08T06:58:05;26.30;;;17.33;;
38513;SDS011;24282;48.400;10.808;2024-03-08T07:00:36;24.83;;;17.47;;
38513;SDS011;24282;48.400;10.808;2024-03-08T07:03:02;24.30;;;17.17;;
38513;SDS011;24282;48.400;10.808;2024-03-08T07:05:28;23.37;;;16.73;;
38513;SDS011;24282;48.400;10.808;2024-03-08T07:07:55;25.13;;;17.40;;
38513;SDS011;24282;48.400;10.808;2024-03-08T07:10:24;25.20;;;17.63;;
38513;SDS011;24282;48.400;10.808;2024-03-08T07:12:50;23.07;;;16.73;;
38513;SDS011;24282;48.400;10.808;2024-03-08T07:15:16;25.13;;;17.97;;
38513;SDS011;24282;48.400;10.808;2024-03-08T07:17:44;24.00;;;17.63;;
38513;SDS011;24282;48.400;10.808;2024-03-08T07:20:11;25.17;;;18.17;;
38513;SDS011;24282;48.400;10.808;2024-03-08T07:22:39;21.77;;;16.57;;
38513;SDS011;24282;48.400;10.808;2024-03-08T07:25:05;25.20;;;17.17;;
38513;SDS011;24282;48.400;10.808;2024-03-08T07:30:19;25.88;;;17.90;;
38513;SDS011;24282;48.400;10.808;2024-03-08T07:33:05;26.03;;;18.00;;
38513;SDS011;24282;48.400;10.808;2024-03-08T07:35:32;24.57;;;17.47;;
38513;SDS011;24282;48.400;10.808;2024-03-08T07:37:58;24.47;;;17.90;;
38513;SDS011;24282;48.400;10.808;2024-03-08T07:40:27;25.17;;;17.73;;
38513;SDS011;24282;48.400;10.808;2024-03-08T07:42:53;24.70;;;17.40;;
38513;SDS011;24282;48.400;10.808;2024-03-08T07:45:19;24.63;;;16.70;;
38513;SDS011;24282;48.400;10.808;2024-03-08T07:47:45;25.67;;;17.97;;
38513;SDS011;24282;48.400;10.808;2024-03-08T07:50:10;26.10;;;17.87;;
38513;SDS011;24282;48.400;10.808;2024-03-08T07:52:36;22.83;;;16.97;;
38513;SDS011;24282;48.400;10.808;2024-03-08T07:55:02;25.67;;;18.83;;
38513;SDS011;24282;48.400;10.808;2024-03-08T07:57:31;28.27;;;20.07;;
38513;SDS011;24282;48.400;10.808;2024-03-08T07:59:57;26.80;;;19.33;;
38513;SDS011;24282;48.400;10.808;2024-03-08T08:02:23;28.73;;;20.33;;
38513;SDS011;24282;48.400;10.808;2024-03-08T08:04:49;25.43;;;18.70;;
38513;SDS011;24282;48.400;10.808;2024-03-08T08:07:14;27.33;;;20.20;;
38513;SDS011;24282;48.400;10.808;2024-03-08T08:09:40;27.03;;;19.17;;
38513;SDS011;24282;48.400;10.808;2024-03-08T08:12:08;26.50;;;18.93;;
38513;SDS011;24282;48.400;10.808;2024-03-08T08:14:37;27.60;;;18.83;;
38513;SDS011;24282;48.400;10.808;2024-03-08T08:17:04;26.50;;;18.60;;
38513;SDS011;24282;48.400;10.808;2024-03-08T08:19:30;25.30;;;17.80;;
38513;SDS011;24282;48.400;10.808;2024-03-08T08:21:57;26.50;;;18.57;;
38513;SDS011;24282;48.400;10.808;2024-03-08T08:24:23;27.90;;;19.57;;
38513;SDS011;24282;48.400;10.808;2024-03-08T08:26:49;24.43;;;18.53;;
38513;SDS011;24282;48.400;10.808;2024-03-08T08:29:15;25.90;;;19.27;;
38513;SDS011;24282;48.400;10.808;2024-03-08T08:31:41;24.37;;;18.13;;
38513;SDS011;24282;48.400;10.808;2024-03-08T08:34:09;28.57;;;19.97;;
38513;SDS011;24282;48.400;10.808;2024-03-08T08:36:37;26.77;;;19.27;;
38513;SDS011;24282;48.400;10.808;2024-03-08T08:39:04;29.97;;;19.83;;
38513;SDS011;24282;48.400;10.808;2024-03-08T08:41:30;28.27;;;19.33;;
38513;SDS011;24282;48.400;10.808;2024-03-08T08:43:57;27.97;;;18.83;;
38513;SDS011;24282;48.400;10.808;2024-03-08T08:46:22;27.23;;;19.37;;
38513;SDS011;24282;48.400;10.808;2024-03-08T08:48:48;28.07;;;19.57;;
38513;SDS011;24282;48.400;10.808;2024-03-08T08:51:14;29.23;;;18.80;;
38513;SDS011;24282;48.400;10.808;2024-03-08T08:53:40;26.40;;;19.53;;
38513;SDS011;24282;48.400;10.808;2024-03-08T08:56:11;28.17;;;19.73;;
38513;SDS011;24282;48.400;10.808;2024-03-08T08:58:41;29.07;;;19.57;;
38513;SDS011;24282;48.400;10.808;2024-03-08T09:01:09;28.60;;;19.83;;
38513;SDS011;24282;48.400;10.808;2024-03-08T09:03:36;28.90;;;20.10;;
38513;SDS011;24282;48.400;10.808;2024-03-08T09:06:03;26.37;;;19.67;;
38513;SDS011;24282;48.400;10.808;2024-03-08T09:08:29;28.17;;;21.10;;
38513;SDS011;24282;48.400;10.808;2024-03-08T09:10:55;24.90;;;18.00;;
38513;SDS011;24282;48.400;10.808;2024-03-08T09:13:21;26.43;;;18.83;;
38513;SDS011;24282;48.400;10.808;2024-03-08T09:15:47;28.57;;;20.13;;
38513;SDS011;24282;48.400;10.808;2024-03-08T09:18:12;25.23;;;18.20;;
38513;SDS011;24282;48.400;10.808;2024-03-08T09:20:38;26.70;;;18.97;;
38513;SDS011;24282;48.400;10.808;2024-03-08T09:23:06;27.07;;;19.17;;
38513;SDS011;24282;48.400;10.808;2024-03-08T09:25:33;26.43;;;18.80;;
38513;SDS011;24282;48.400;10.808;2024-03-08T09:27:59;27.07;;;19.27;;
38513;SDS011;24282;48.400;10.808;2024-03-08T09:30:25;25.23;;;18.23;;
38513;SDS011;24282;48.400;10.808;2024-03-08T09:32:50;25.20;;;18.00;;
38513;SDS011;24282;48.400;10.808;2024-03-08T09:35:16;25.87;;;19.30;;
38513;SDS011;24282;48.400;10.808;2024-03-08T09:37:42;26.33;;;19.33;;
38513;SDS011;24282;48.400;10.808;2024-03-08T09:40:08;26.40;;;19.60;;
38513;SDS011;24282;48.400;10.808;2024-03-08T09:42:40;25.80;;;18.73;;
38513;SDS011;24282;48.400;10.808;2024-03-08T09:45:10;26.23;;;18.53;;
38513;SDS011;24282;48.400;10.808;2024-03-08T09:47:40;23.23;;;17.27;;
38513;SDS011;24282;48.400;10.808;2024-03-08T09:50:08;23.67;;;17.47;;
38513;SDS011;24282;48.400;10.808;2024-03-08T09:52:37;23.63;;;18.10;;
38513;SDS011;24282;48.400;10.808;2024-03-08T09:55:07;25.87;;;18.77;;
38513;SDS011;24282;48.400;10.808;2024-03-08T09:57:36;24.73;;;18.10;;
38513;SDS011;24282;48.400;10.808;2024-03-08T10:00:03;25.83;;;18.97;;
38513;SDS011;24282;48.400;10.808;2024-03-08T10:02:50;26.47;;;19.87;;
38513;SDS011;24282;48.400;10.808;2024-03-08T10:05:18;25.73;;;19.10;;
38513;SDS011;24282;48.400;10.808;2024-03-08T10:07:45;23.67;;;18.17;;
38513;SDS011;24282;48.400;10.808;2024-03-08T10:10:11;23.47;;;18.40;;
38513;SDS011;24282;48.400;10.808;2024-03-08T10:12:37;25.90;;;17.87;;
38513;SDS011;24282;48.400;10.808;2024-03-08T10:15:07;24.80;;;17.67;;
38513;SDS011;24282;48.400;10.808;2024-03-08T10:17:34;22.87;;;17.23;;
38513;SDS011;24282;48.400;10.808;2024-03-08T10:20:00;26.20;;;19.57;;
38513;SDS011;24282;48.400;10.808;2024-03-08T10:22:26;24.03;;;16.97;;
38513;SDS011;24282;48.400;10.808;2024-03-08T10:27:42;26.43;;;19.20;;
38513;SDS011;24282;48.400;10.808;2024-03-08T10:30:14;24.77;;;18.43;;
38513;SDS011;24282;48.400;10.808;2024-03-08T10:32:44;24.77;;;19.30;;
38513;SDS011;24282;48.400;10.808;2024-03-08T10:35:10;22.13;;;17.53;;
38513;SDS011;24282;48.400;10.808;2024-03-08T10:40:15;22.10;;;16.73;;
38513;SDS011;24282;48.400;10.808;2024-03-08T10:42:47;23.93;;;17.83;;
38513;SDS011;24282;48.400;10.808;2024-03-08T10:45:30;24.67;;;18.40;;
38513;SDS011;24282;48.400;10.808;2024-03-08T10:50:42;25.27;;;18.07;;
38513;SDS011;24282;48.400;10.808;2024-03-08T10:53:14;23.37;;;18.50;;
38513;SDS011;24282;48.400;10.808;2024-03-08T10:55:40;23.90;;;18.23;;
38513;SDS011;24282;48.400;10.808;2024-03-08T10:58:07;21.63;;;16.30;;
38513;SDS011;24282;48.400;10.808;2024-03-08T11:00:33;21.73;;;16.83;;
38513;SDS011;24282;48.400;10.808;2024-03-08T11:03:00;24.10;;;17.50;;
38513;SDS011;24282;48.400;10.808;2024-03-08T11:08:03;20.73;;;16.50;;
38513;SDS011;24282;48.400;10.808;2024-03-08T11:11:01;23.27;;;17.30;;
38513;SDS011;24282;48.400;10.808;2024-03-08T11:13:40;20.43;;;15.87;;
38513;SDS011;24282;48.400;10.808;2024-03-08T11:19:00;22.00;;;15.17;;
38513;SDS011;24282;48.400;10.808;2024-03-08T11:21:47;18.87;;;15.50;;
38513;SDS011;24282;48.400;10.808;2024-03-08T11:24:13;21.30;;;16.23;;
38513;SDS011;24282;48.400;10.808;2024-03-08T11:26:42;19.57;;;15.17;;
38513;SDS011;24282;48.400;10.808;2024-03-08T11:37:00;17.13;;;13.50;;
38513;SDS011;24282;48.400;10.808;2024-03-08T11:39:26;18.40;;;14.70;;
38513;SDS011;24282;48.400;10.808;2024-03-08T11:41:53;17.70;;;14.43;;
38513;SDS011;24282;48.400;10.808;2024-03-08T11:44:20;18.17;;;14.40;;
38513;SDS011;24282;48.400;10.808;2024-03-08T11:46:46;18.40;;;14.40;;
38513;SDS011;24282;48.400;10.808;2024-03-08T11:49:15;17.47;;;14.33;;
38513;SDS011;24282;48.400;10.808;2024-03-08T11:51:41;18.80;;;14.33;;
38513;SDS011;24282;48.400;10.808;2024-03-08T11:54:10;18.43;;;14.70;;
38513;SDS011;24282;48.400;10.808;2024-03-08T11:56:40;18.67;;;14.67;;
38513;SDS011;24282;48.400;10.808;2024-03-08T11:59:11;19.73;;;14.97;;
38513;SDS011;24282;48.400;10.808;2024-03-08T12:01:40;16.97;;;14.33;;
38513;SDS011;24282;48.400;10.808;2024-03-08T12:04:06;18.37;;;14.07;;
38513;SDS011;24282;48.400;10.808;2024-03-08T12:06:40;18.33;;;14.37;;
38513;SDS011;24282;48.400;10.808;2024-03-08T12:09:10;16.17;;;13.23;;
38513;SDS011;24282;48.400;10.808;2024-03-08T12:11:36;15.20;;;12.10;;
38513;SDS011;24282;48.400;10.808;2024-03-08T12:14:06;14.87;;;11.77;;
38513;SDS011;24282;48.400;10.808;2024-03-08T12:16:32;18.23;;;14.50;;
38513;SDS011;24282;48.400;10.808;2024-03-08T12:18:59;17.93;;;12.77;;
38513;SDS011;24282;48.400;10.808;2024-03-08T12:21:25;14.93;;;11.47;;
38513;SDS011;24282;48.400;10.808;2024-03-08T12:24:07;16.53;;;13.13;;
38513;SDS011;24282;48.400;10.808;2024-03-08T12:26:35;16.53;;;12.23;;
38513;SDS011;24282;48.400;10.808;2024-03-08T12:29:17;14.90;;;11.33;;
38513;SDS011;24282;48.400;10.808;2024-03-08T12:31:51;14.87;;;11.67;;
38513;SDS011;24282;48.400;10.808;2024-03-08T12:34:18;13.23;;;11.00;;
38513;SDS011;24282;48.400;10.808;2024-03-08T12:36:47;15.00;;;12.10;;
38513;SDS011;24282;48.400;10.808;2024-03-08T12:39:16;13.23;;;11.10;;
38513;SDS011;24282;48.400;10.808;2024-03-08T12:41:43;15.13;;;11.80;;
38513;SDS011;24282;48.400;10.808;2024-03-08T12:44:09;14.47;;;11.53;;
38513;SDS011;24282;48.400;10.808;2024-03-08T12:46:39;13.33;;;10.10;;
38513;SDS011;24282;48.400;10.808;2024-03-08T12:49:07;13.33;;;11.27;;
38513;SDS011;24282;48.400;10.808;2024-03-08T12:51:33;14.10;;;11.43;;
38513;SDS011;24282;48.400;10.808;2024-03-08T12:53:59;12.93;;;10.90;;
38513;SDS011;24282;48.400;10.808;2024-03-08T12:56:29;11.17;;;9.53;;
38513;SDS011;24282;48.400;10.808;2024-03-08T12:58:56;14.90;;;11.07;;
38513;SDS011;24282;48.400;10.808;2024-03-08T13:01:21;12.30;;;10.37;;
38513;SDS011;24282;48.400;10.808;2024-03-08T13:03:47;14.13;;;9.73;;
38513;SDS011;24282;48.400;10.808;2024-03-08T13:06:14;12.73;;;10.67;;
38513;SDS011;24282;48.400;10.808;2024-03-08T13:08:41;13.57;;;11.33;;
38513;SDS011;24282;48.400;10.808;2024-03-08T13:11:09;13.00;;;10.63;;
38513;SDS011;24282;48.400;10.808;2024-03-08T13:13:39;13.80;;;11.00;;
38513;SDS011;24282;48.400;10.808;2024-03-08T13:16:06;13.37;;;10.37;;
38513;SDS011;24282;48.400;10.808;2024-03-08T13:18:35;11.90;;;10.03;;
38513;SDS011;24282;48.400;10.808;2024-03-08T13:21:01;13.43;;;9.87;;
38513;SDS011;24282;48.400;10.808;2024-03-08T13:23:35;13.67;;;10.97;;
38513;SDS011;24282;48.400;10.808;2024-03-08T13:26:07;13.03;;;10.37;;
38513;SDS011;24282;48.400;10.808;2024-03-08T13:28:35;12.17;;;9.73;;
38513;SDS011;24282;48.400;10.808;2024-03-08T13:31:04;11.63;;;9.87;;
38513;SDS011;24282;48.400;10.808;2024-03-08T13:33:35;13.10;;;10.40;;
38513;SDS011;24282;48.400;10.808;2024-03-08T13:36:08;10.93;;;9.10;;
38513;SDS011;24282;48.400;10.808;2024-03-08T13:38:44;13.57;;;9.57;;
38513;SDS011;24282;48.400;10.808;2024-03-08T13:41:11;11.33;;;9.43;;
38513;SDS011;24282;48.400;10.808;2024-03-08T13:43:46;11.90;;;10.27;;
38513;SDS011;24282;48.400;10.808;2024-03-08T13:46:15;10.63;;;8.50;;
38513;SDS011;24282;48.400;10.808;2024-03-08T13:48:41;10.97;;;8.80;;
38513;SDS011;24282;48.400;10.808;2024-03-08T13:51:07;11.50;;;9.03;;
38513;SDS011;24282;48.400;10.808;2024-03-08T13:53:35;13.40;;;9.10;;
38513;SDS011;24282;48.400;10.808;2024-03-08T13:56:01;12.23;;;9.00;;
38513;SDS011;24282;48.400;10.808;2024-03-08T13:58:28;9.67;;;7.93;;
38513;SDS011;24282;48.400;10.808;2024-03-08T14:00:54;11.20;;;9.20;;
38513;SDS011;24282;48.400;10.808;2024-03-08T14:03:20;11.37;;;8.63;;
38513;SDS011;24282;48.400;10.808;2024-03-08T14:05:46;9.53;;;7.97;;
38513;SDS011;24282;48.400;10.808;2024-03-08T14:08:12;10.50;;;7.73;;
38513;SDS011;24282;48.400;10.808;2024-03-08T14:10:39;9.67;;;7.70;;
38513;SDS011;24282;48.400;10.808;2024-03-08T14:13:04;10.10;;;8.13;;
38513;SDS011;24282;48.400;10.808;2024-03-08T14:15:32;9.00;;;7.27;;
38513;SDS011;24282;48.400;10.808;2024-03-08T14:17:58;10.03;;;8.40;;
38513;SDS011;24282;48.400;10.808;2024-03-08T14:20:24;8.73;;;7.20;;
38513;SDS011;24282;48.400;10.808;2024-03-08T14:22:53;11.13;;;9.00;;
38513;SDS011;24282;48.400;10.808;2024-03-08T14:25:20;10.60;;;8.70;;
38513;SDS011;24282;48.400;10.808;2024-03-08T14:27:48;12.70;;;8.90;;
38513;SDS011;24282;48.400;10.808;2024-03-08T14:30:16;9.27;;;7.30;;
38513;SDS011;24282;48.400;10.808;2024-03-08T14:32:57;9.50;;;7.63;;
38513;SDS011;24282;48.400;10.808;2024-03-08T14:35:25;10.67;;;8.40;;
38513;SDS011;24282;48.400;10.808;2024-03-08T14:37:51;10.83;;;8.37;;
38513;SDS011;24282;48.400;10.808;2024-03-08T14:40:17;9.17;;;7.60;;